Time;durP1;ratioP1;P1;durP2;ratioP2;P2;SDS_P1;SDS_P2;PMS_P1;PMS_P2;Temp;Humidity;BMP_temperature;BMP_pressure;BME280_temperature;BME280_humidity;BME280_pressure;Samples;Min_cycle;Max_cycle;Signal;HPM_P1;HPM_P2
2022/09/16 00:00:29;;;;;;;8.63;7.07;;;;;;;17.35;64.71;98210.38;7004840;28;20249;-79
2022/09/16 00:03:54;;;;;;;7.23;6.53;;;;;;;18.15;63.21;98194.44;7004892;28;20208;-79
2022/09/16 00:07:15;;;;;;;8.20;6.13;;;;;;;18.05;62.81;98164.41;7004895;28;20234;-79
2022/09/16 00:10:37;;;;;;;9.77;6.60;;;;;;;18.20;62.49;98183.56;7004559;28;20232;-79
2022/09/16 00:14:00;;;;;;;9.40;6.00;;;;;;;18.56;62.21;98197.03;7004597;28;20232;-79
2022/09/16 00:17:21;;;;;;;11.17;6.10;;;;;;;18.67;61.09;98176.03;7004437;28;20320;-78
2022/09/16 00:20:45;;;;;;;6.97;6.37;;;;;;;18.74;60.73;98191.06;7004136;28;20208;-79
2022/09/16 00:24:07;;;;;;;7.90;6.63;;;;;;;18.46;61.30;98163.47;7004392;28;20299;-79
2022/09/16 00:27:28;;;;;;;7.27;6.53;;;;;;;18.59;61.03;98192.97;7003964;28;20293;-79
2022/09/16 00:30:51;;;;;;;8.03;6.13;;;;;;;18.53;61.42;98183.13;7004421;28;20256;-78
2022/09/16 00:34:12;;;;;;;6.23;5.63;;;;;;;18.51;61.15;98182.59;7004317;28;20366;-79
2022/09/16 00:37:34;;;;;;;20.10;6.87;;;;;;;18.61;61.26;98177.13;7006141;28;20819;-79
2022/09/16 00:40:56;;;;;;;8.53;5.70;;;;;;;18.61;61.24;98188.88;7014794;28;20211;-79
2022/09/16 00:44:53;;;;;;;8.47;5.60;;;;;;;18.84;60.78;98195.72;7014842;28;20299;-79
2022/09/16 00:48:20;;;;;;;5.97;5.47;;;;;;;18.36;61.65;98188.00;7004184;28;20289;-79
2022/09/16 00:51:42;;;;;;;8.20;6.30;;;;;;;18.41;61.84;98185.28;7003707;28;20207;-79
2022/09/16 00:55:07;;;;;;;11.97;7.40;;;;;;;18.53;61.64;98196.78;7003938;28;20216;-77
2022/09/16 00:58:35;;;;;;;10.50;6.23;;;;;;;18.64;61.77;98184.78;7002832;28;20324;-79
2022/09/16 01:01:59;;;;;;;6.17;5.30;;;;;;;18.68;61.24;98177.66;7003925;28;20214;-79
2022/09/16 01:05:24;;;;;;;6.60;5.97;;;;;;;18.58;61.29;98178.47;7003148;28;20295;-78
2022/09/16 01:08:46;;;;;;;8.03;5.60;;;;;;;18.60;61.67;98194.59;7002424;28;20315;-79
2022/09/16 01:12:08;;;;;;;7.13;5.90;;;;;;;18.66;61.59;98183.41;7002980;28;20319;-79
2022/09/16 01:15:34;;;;;;;6.87;6.23;;;;;;;18.68;60.77;98170.31;7003588;28;20205;-79
2022/09/16 01:19:01;;;;;;;9.90;6.17;;;;;;;18.51;61.90;98191.56;7002270;28;20260;-79
2022/09/16 01:22:37;;;;;;;8.63;6.63;;;;;;;18.61;61.48;98177.13;7003602;28;20239;-79
2022/09/16 01:26:09;;;;;;;9.37;6.00;;;;;;;18.62;62.12;98184.22;7005162;28;20232;-79
2022/09/16 01:29:50;;;;;;;8.63;6.53;;;;;;;18.26;63.19;98194.22;7018614;28;20201;-79
2022/09/16 01:33:18;;;;;;;6.03;5.43;;;;;;;18.75;61.62;98187.22;7030806;28;20897;-78
2022/09/16 01:36:45;;;;;;;7.63;6.20;;;;;;;18.31;62.73;98199.72;7029473;28;20234;-79
2022/09/16 01:40:10;;;;;;;8.00;7.20;;;;;;;18.29;63.17;98206.50;7030187;28;20189;-78
2022/09/16 01:43:39;;;;;;;7.13;6.13;;;;;;;18.60;62.63;98198.16;7030291;28;20210;-79
2022/09/16 01:47:04;;;;;;;7.60;6.07;;;;;;;18.57;62.39;98170.59;7024733;28;20232;-79
2022/09/16 01:50:30;;;;;;;8.30;6.10;;;;;;;18.81;62.01;98196.28;7029708;28;20291;-79
2022/09/16 01:53:54;;;;;;;9.20;6.57;;;;;;;18.68;61.77;98177.66;7030234;28;20207;-79
2022/09/16 01:57:18;;;;;;;9.60;6.00;;;;;;;18.76;61.19;98188.88;7030253;28;20712;-78
2022/09/16 02:00:41;;;;;;;12.80;5.90;;;;;;;18.72;61.54;98185.06;7029714;28;20567;-79
2022/09/16 02:04:06;;;;;;;7.97;6.00;;;;;;;18.65;61.86;98194.59;7027895;28;20256;-79
2022/09/16 02:07:31;;;;;;;8.70;6.87;;;;;;;18.43;61.53;98192.13;7001933;28;20388;-79
2022/09/16 02:10:57;;;;;;;7.43;6.50;;;;;;;18.17;62.93;98193.09;7001333;28;20260;-79
2022/09/16 02:14:20;;;;;;;7.37;5.63;;;;;;;18.43;62.45;98194.84;7001722;28;20203;-79
2022/09/16 02:17:45;;;;;;;10.43;6.67;;;;;;;18.52;62.42;98195.13;7001742;28;20233;-79
2022/09/16 02:21:10;;;;;;;6.70;6.00;;;;;;;18.12;62.36;98198.56;7002158;28;20281;-79
2022/09/16 02:24:34;;;;;;;7.23;6.53;;;;;;;18.37;62.36;98195.94;7001966;28;20294;-79
2022/09/16 02:27:55;;;;;;;24.60;6.30;;;;;;;18.14;61.76;98157.34;7000997;28;20233;-79
2022/09/16 02:31:19;;;;;;;7.00;5.73;;;;;;;18.35;62.20;98191.81;7002601;28;20201;-78
2022/09/16 02:34:42;;;;;;;8.87;6.10;;;;;;;18.38;61.85;98185.81;7001576;28;20284;-79
2022/09/16 02:38:07;;;;;;;6.40;5.80;;;;;;;18.34;62.23;98184.72;7000687;28;20227;-79
2022/09/16 02:41:30;;;;;;;7.50;6.87;;;;;;;18.23;62.75;98183.81;7001300;28;20249;-76
2022/09/16 02:44:51;;;;;;;7.43;6.50;;;;;;;18.35;62.30;98164.53;7001137;28;20776;-76
2022/09/16 02:48:18;;;;;;;8.33;6.63;;;;;;;18.29;62.45;98185.47;7020429;28;20215;-75
2022/09/16 02:51:45;;;;;;;8.17;6.90;;;;;;;17.68;62.23;98131.03;7016000;28;20227;-77
2022/09/16 02:55:13;;;;;;;7.03;6.30;;;;;;;17.72;63.42;98173.00;7006774;28;20188;-77
2022/09/16 02:58:36;;;;;;;10.70;7.10;;;;;;;17.50;64.19;98191.41;7006010;28;20230;-76
2022/09/16 03:01:59;;;;;;;12.07;6.93;;;;;;;17.59;64.43;98182.50;7006528;28;20225;-77
2022/09/16 03:05:20;;;;;;;10.53;7.07;;;;;;;17.81;63.73;98188.59;7006586;28;20293;-76
2022/09/16 03:08:43;;;;;;;9.67;6.60;;;;;;;18.03;63.72;98186.50;7006934;28;20232;-76
2022/09/16 03:12:42;;;;;;;7.20;6.60;;;;;;;18.16;63.68;98180.53;7007673;28;20211;-76
2022/09/16 03:16:09;;;;;;;7.80;7.00;;;;;;;18.11;63.01;98182.44;7001543;28;20274;-76
2022/09/16 03:19:37;;;;;;;9.80;7.27;;;;;;;17.69;63.89;98184.47;7007034;28;20327;-76
2022/09/16 03:23:04;;;;;;;8.90;8.00;;;;;;;17.61;64.58;98187.66;7017027;28;20253;-76
2022/09/16 03:26:34;;;;;;;6.90;6.20;;;;;;;18.13;63.36;98186.56;7005603;28;20291;-76
2022/09/16 03:29:59;;;;;;;8.20;6.57;;;;;;;18.36;62.72;98179.81;7005429;28;20341;-76
2022/09/16 03:33:26;;;;;;;7.40;6.60;;;;;;;18.18;62.74;98180.28;7005751;28;20227;-77
2022/09/16 03:36:50;;;;;;;8.47;5.73;;;;;;;18.03;62.13;98131.13;7005505;28;20284;-78
2022/09/16 03:40:14;;;;;;;9.13;5.90;;;;;;;18.05;61.98;98178.88;7004871;28;20211;-78
2022/09/16 03:43:35;;;;;;;8.37;5.87;;;;;;;18.30;61.91;98175.41;7005541;28;20712;-78
2022/09/16 03:46:57;;;;;;;10.03;6.53;;;;;;;17.56;62.71;98144.84;7005664;28;20314;-77
2022/09/16 03:50:21;;;;;;;6.83;6.13;;;;;;;18.04;62.57;98162.78;7004998;28;20303;-78
2022/09/16 03:53:42;;;;;;;7.83;6.27;;;;;;;18.24;62.40;98165.56;7004855;28;20228;-78
2022/09/16 03:57:04;;;;;;;8.90;6.60;;;;;;;18.18;61.41;98133.91;7004908;28;20591;-77
2022/09/16 04:00:27;;;;;;;8.10;7.13;;;;;;;17.96;62.68;98171.47;7003328;28;20353;-78
2022/09/16 04:03:51;;;;;;;7.77;6.97;;;;;;;17.86;63.39;98171.44;7016931;28;20237;-78
2022/09/16 04:07:14;;;;;;;6.13;5.60;;;;;;;18.27;62.65;98163.13;7031995;28;20688;-79
2022/09/16 04:10:36;;;;;;;8.73;6.53;;;;;;;18.28;62.52;98163.94;7031118;28;20213;-79
2022/09/16 04:13:57;;;;;;;11.17;6.07;;;;;;;18.49;61.45;98177.38;7032054;28;20838;-79
2022/09/16 04:17:19;;;;;;;9.43;6.40;;;;;;;18.16;62.16;98171.56;7031288;28;20223;-79
2022/09/16 04:20:41;;;;;;;7.33;6.63;;;;;;;17.90;63.08;98167.09;7031324;28;20287;-78
2022/09/16 04:24:04;;;;;;;7.47;6.77;;;;;;;17.84;63.10;98133.53;7031363;28;20201;-79
2022/09/16 04:27:26;;;;;;;14.77;7.07;;;;;;;17.88;62.76;98137.34;7031347;28;20332;-79
2022/09/16 04:30:47;;;;;;;10.07;6.63;;;;;;;18.21;62.62;98147.81;7030729;28;20265;-79
2022/09/16 04:34:10;;;;;;;7.40;6.70;;;;;;;18.29;62.56;98149.19;7030839;28;20231;-79
2022/09/16 04:37:32;;;;;;;6.90;6.07;;;;;;;18.29;62.17;98133.63;7030036;28;20644;-79
2022/09/16 04:40:59;;;;;;;7.97;6.80;;;;;;;18.12;62.50;98151.34;7036013;28;20302;-79
2022/09/16 04:44:21;;;;;;;10.83;7.20;;;;;;;18.28;62.35;98150.31;7032812;28;20210;-79
2022/09/16 04:47:42;;;;;;;10.73;7.30;;;;;;;18.45;62.45;98150.91;7030659;28;20295;-79
2022/09/16 04:51:06;;;;;;;7.83;6.60;;;;;;;18.33;62.59;98133.97;7050298;28;20211;-79
2022/09/16 04:54:28;;;;;;;7.33;6.23;;;;;;;18.43;62.61;98140.25;7032504;28;20223;-79
2022/09/16 04:57:51;;;;;;;8.57;7.03;;;;;;;18.56;62.49;98155.25;7031061;28;20314;-78
2022/09/16 05:01:14;;;;;;;8.47;6.03;;;;;;;18.54;62.20;98138.34;7032250;28;20290;-78
2022/09/16 05:04:35;;;;;;;7.77;6.30;;;;;;;18.66;61.62;98149.81;7034950;28;20238;-79
2022/09/16 05:07:57;;;;;;;6.87;6.17;;;;;;;18.47;62.30;98155.00;7029709;28;20711;-79
2022/09/16 05:11:20;;;;;;;7.37;6.57;;;;;;;18.30;62.76;98176.22;7027901;28;20286;-78
2022/09/16 05:14:43;;;;;;;9.00;7.37;;;;;;;18.07;62.95;98171.25;7029376;28;20315;-78
2022/09/16 05:18:04;;;;;;;7.73;6.37;;;;;;;18.29;62.88;98165.56;7026274;28;20223;-79
2022/09/16 05:21:27;;;;;;;7.17;6.47;;;;;;;18.49;62.86;98150.09;7031855;28;20294;-81
2022/09/16 05:24:49;;;;;;;9.23;7.77;;;;;;;18.42;63.71;98149.53;7032501;28;20219;-80
2022/09/16 05:28:10;;;;;;;8.17;6.50;;;;;;;18.73;63.02;98164.84;7018125;28;20250;-79
2022/09/16 05:31:35;;;;;;;9.33;6.53;;;;;;;18.79;62.47;98174.69;7030479;28;20260;-79
2022/09/16 05:34:57;;;;;;;7.43;6.07;;;;;;;18.91;61.47;98161.56;7030707;28;20272;-80
2022/09/16 05:38:18;;;;;;;8.77;6.40;;;;;;;18.54;62.40;98165.66;7045348;28;20221;-79
2022/09/16 05:41:40;;;;;;;8.37;6.17;;;;;;;18.61;62.42;98161.56;7061290;28;20300;-79
2022/09/16 05:45:01;;;;;;;6.90;6.20;;;;;;;18.65;62.11;98165.41;7060568;28;20206;-78
2022/09/16 05:48:25;;;;;;;8.93;6.43;;;;;;;18.65;62.23;98157.22;7058736;28;20226;-77
2022/09/16 05:51:47;;;;;;;6.70;6.07;;;;;;;18.82;61.71;98156.94;7058453;28;20575;-78
2022/09/16 05:55:09;;;;;;;6.93;6.10;;;;;;;18.72;61.84;98168.69;7038434;28;20227;-77
2022/09/16 05:58:33;;;;;;;8.97;6.17;;;;;;;18.76;61.75;98163.50;7028283;28;20236;-77
2022/09/16 06:01:55;;;;;;;5.93;5.30;;;;;;;18.94;61.39;98155.56;7030295;28;20283;-78
2022/09/16 06:05:18;;;;;;;7.07;6.47;;;;;;;18.74;62.24;98162.94;7030771;28;20289;-77
2022/09/16 06:08:40;;;;;;;11.40;5.90;;;;;;;18.95;61.17;98178.22;7029874;28;20288;-77
2022/09/16 06:12:02;;;;;;;6.40;5.80;;;;;;;18.56;61.77;98168.91;7030667;28;20215;-77
2022/09/16 06:15:24;;;;;;;9.87;6.40;;;;;;;18.59;61.60;98188.34;7029757;28;20260;-77
2022/09/16 06:18:45;;;;;;;13.30;7.73;;;;;;;17.68;64.25;98180.09;7030527;28;20294;-77
2022/09/16 06:22:08;;;;;;;10.00;6.20;;;;;;;17.99;63.83;98177.22;7030068;28;20264;-77
2022/09/16 06:25:30;;;;;;;10.93;6.40;;;;;;;17.88;64.70;98175.53;7027143;28;20609;-77
2022/09/16 06:28:53;;;;;;;8.20;6.00;;;;;;;18.58;62.59;98164.81;7029740;28;20373;-77
2022/09/16 06:32:14;;;;;;;10.57;6.67;;;;;;;18.80;62.30;98175.50;7030004;28;20200;-77
2022/09/16 06:35:36;;;;;;;8.30;5.87;;;;;;;18.81;61.90;98177.94;7029532;28;20230;-77
2022/09/16 06:38:59;;;;;;;7.13;6.17;;;;;;;18.75;62.28;98186.44;7029435;28;20203;-77
2022/09/16 06:42:20;;;;;;;9.43;5.77;;;;;;;18.99;60.71;98174.66;7027208;28;20242;-77
2022/09/16 06:45:41;;;;;;;8.83;5.37;;;;;;;18.88;61.65;98183.16;7030221;28;20336;-78
2022/09/16 06:49:03;;;;;;;7.43;5.60;;;;;;;19.06;61.23;98188.91;7030060;28;20395;-78
2022/09/16 06:52:25;;;;;;;7.67;5.53;;;;;;;18.79;61.97;98158.28;7046888;28;20208;-77
2022/09/16 06:55:48;;;;;;;10.40;5.67;;;;;;;19.02;61.85;98179.59;7045751;28;20228;-77
2022/09/16 06:59:13;;;;;;;8.73;5.60;;;;;;;19.07;61.87;98190.53;7029542;28;20269;-77
2022/09/16 07:02:35;;;;;;;6.33;5.60;;;;;;;19.17;60.79;98184.25;7031527;28;20238;-78
2022/09/16 07:05:57;;;;;;;6.80;6.20;;;;;;;19.15;60.87;98189.97;7029149;28;20314;-77
2022/09/16 07:09:19;;;;;;;9.33;6.00;;;;;;;18.91;61.41;98199.81;7028902;28;20204;-77
2022/09/16 07:12:42;;;;;;;8.00;4.50;;;;;;;17.62;61.02;98208.38;7028448;28;20204;-77
2022/09/16 07:16:05;;;;;;;5.17;4.67;;;;;;;17.58;63.03;98219.00;7029044;28;20292;-77
2022/09/16 07:19:26;;;;;;;6.87;4.77;;;;;;;17.97;62.42;98203.94;7016086;28;20277;-77
2022/09/16 07:22:49;;;;;;;7.27;4.30;;;;;;;18.07;61.51;98205.88;7030917;28;20360;-77
2022/09/16 07:26:12;;;;;;;5.03;3.60;;;;;;;18.16;60.83;98204.28;7032748;28;20219;-77
2022/09/16 07:29:35;;;;;;;5.60;3.70;;;;;;;17.28;61.98;98207.88;7002685;28;20337;-77
2022/09/16 07:32:57;;;;;;;7.87;4.23;;;;;;;17.80;62.26;98207.97;7009591;28;20317;-77
2022/09/16 07:36:22;;;;;;;8.80;4.20;;;;;;;18.00;61.77;98205.31;7032965;28;20304;-77
2022/09/16 07:39:44;;;;;;;6.37;3.87;;;;;;;17.81;60.02;98213.13;7018080;28;20773;-78
2022/09/16 07:43:06;;;;;;;6.20;4.33;;;;;;;17.96;61.46;98218.66;7031174;28;20241;-77
2022/09/16 07:46:31;;;;;;;8.50;4.07;;;;;;;18.19;61.53;98239.22;7034054;28;20313;-77
2022/09/16 07:49:54;;;;;;;8.40;4.60;;;;;;;18.05;61.51;98229.91;7033421;28;20209;-81
2022/09/16 07:53:16;;;;;;;5.50;3.93;;;;;;;18.09;60.27;98209.16;7040422;28;20252;-77
2022/09/16 07:56:39;;;;;;;8.13;4.30;;;;;;;17.93;61.08;98223.84;7034716;28;20287;-77
2022/09/16 08:00:00;;;;;;;7.27;4.30;;;;;;;18.39;60.45;98233.88;7034003;28;20195;-77
2022/09/16 08:03:23;;;;;;;6.10;4.17;;;;;;;18.58;60.48;98226.81;7033263;28;20365;-77
2022/09/16 08:06:45;;;;;;;7.30;4.87;;;;;;;18.97;58.96;98230.69;7033462;28;20318;-77
2022/09/16 08:10:07;;;;;;;7.13;3.90;;;;;;;19.15;58.27;98211.00;7032138;28;20242;-77
2022/09/16 08:13:30;;;;;;;7.77;4.23;;;;;;;19.07;58.29;98190.53;7032856;28;20223;-77
2022/09/16 08:16:52;;;;;;;10.73;4.77;;;;;;;19.15;59.27;98209.09;7032780;28;20251;-78
2022/09/16 08:20:15;;;;;;;8.50;4.30;;;;;;;19.28;59.12;98218.72;7031984;28;20358;-77
2022/09/16 08:23:37;;;;;;;6.10;4.30;;;;;;;19.46;57.69;98220.88;7032963;28;20291;-77
2022/09/16 08:26:58;;;;;;;7.23;3.90;;;;;;;19.45;57.73;98221.97;7032518;28;20289;-77
2022/09/16 08:30:20;;;;;;;4.57;3.80;;;;;;;19.24;58.17;98228.53;7032176;28;20289;-77
2022/09/16 08:33:42;;;;;;;5.63;4.27;;;;;;;19.45;57.73;98219.22;7031536;28;20322;-77
2022/09/16 08:37:05;;;;;;;5.33;3.90;;;;;;;19.49;59.01;98243.00;7032692;28;20221;-77
2022/09/16 08:40:30;;;;;;;4.30;3.90;;;;;;;19.53;58.18;98233.16;7031066;28;20582;-77
2022/09/16 08:43:59;;;;;;;8.73;4.10;;;;;;;19.58;57.01;98246.00;7031061;28;20558;-76
2022/09/16 08:47:31;;;;;;;5.47;4.00;;;;;;;19.47;58.27;98247.13;7031047;28;20315;-77
2022/09/16 08:50:52;;;;;;;6.77;5.37;;;;;;;19.20;59.02;98249.28;7031148;28;20226;-77
2022/09/16 08:54:26;;;;;;;6.57;4.63;;;;;;;19.23;58.93;98244.09;7031242;28;20314;-77
2022/09/16 08:57:53;;;;;;;4.87;4.37;;;;;;;19.30;58.02;98249.31;7030466;28;20236;-77
2022/09/16 09:01:18;;;;;;;10.63;5.03;;;;;;;19.35;58.97;98255.56;7030623;28;20324;-77
2022/09/16 09:04:39;;;;;;;4.90;4.20;;;;;;;19.56;56.80;98251.75;7030710;28;20296;-76
2022/09/16 09:08:18;;;;;;;5.17;4.40;;;;;;;19.22;59.32;98260.81;7030511;28;20306;-76
2022/09/16 09:11:44;;;;;;;4.97;4.10;;;;;;;19.09;58.14;98261.28;7030808;28;20283;-76
2022/09/16 09:15:15;;;;;;;9.00;8.00;;;;;;;18.95;58.51;98258.28;7031037;28;20281;-76
2022/09/16 09:18:41;;;;;;;4.07;3.67;;;;;;;18.99;58.00;98250.38;7029988;28;20235;-76
2022/09/16 09:22:12;;;;;;;4.83;4.43;;;;;;;19.62;57.39;98244.34;7028162;28;20216;-76
2022/09/16 09:25:40;;;;;;;6.30;4.07;;;;;;;19.33;57.46;98255.03;7003181;28;20280;-76
2022/09/16 09:29:36;;;;;;;8.97;4.90;;;;;;;19.36;58.26;98226.34;7002272;28;20201;-77
2022/09/16 09:33:10;;;;;;;6.37;4.40;;;;;;;19.07;58.62;98244.34;6982153;28;20205;-76
2022/09/16 09:36:44;;;;;;;8.60;4.53;;;;;;;19.37;58.92;98247.13;7002599;28;20521;-76
2022/09/16 09:40:11;;;;;;;5.93;4.30;;;;;;;19.19;57.84;98236.69;7002077;28;20330;-77
2022/09/16 09:43:35;;;;;;;5.00;3.37;;;;;;;19.90;56.31;98228.16;7002082;28;20359;-77
2022/09/16 09:47:03;;;;;;;5.67;3.70;;;;;;;20.19;53.91;98237.38;7001524;28;20316;-76
2022/09/16 09:50:28;;;;;;;6.90;4.23;;;;;;;19.84;56.72;98222.97;7001672;28;20215;-77
2022/09/16 09:53:53;;;;;;;7.17;4.60;;;;;;;20.17;57.03;98214.13;7002409;28;20247;-78
2022/09/16 09:57:22;;;;;;;4.33;3.90;;;;;;;20.46;55.91;98243.25;7016551;28;20301;-79
2022/09/16 10:00:44;;;;;;;7.83;3.93;;;;;;;20.82;54.38;98243.88;7030534;28;20740;-79
2022/09/16 10:04:12;;;;;;;4.63;3.70;;;;;;;20.94;53.80;98241.63;7030772;28;20209;-79
2022/09/16 10:07:36;;;;;;;4.40;4.00;;;;;;;21.07;53.24;98230.03;7031010;28;20318;-79
2022/09/16 10:11:00;;;;;;;7.40;3.80;;;;;;;20.58;54.60;98226.50;7030620;28;20268;-78
2022/09/16 10:14:24;;;;;;;5.77;5.10;;;;;;;20.40;55.86;98227.16;7030338;28;20252;-78
2022/09/16 10:17:48;;;;;;;5.40;4.90;;;;;;;19.92;55.56;98225.94;7029632;28;20225;-78
2022/09/16 10:21:12;;;;;;;8.63;5.00;;;;;;;19.81;56.18;98232.53;7030519;28;20205;-78
2022/09/16 10:24:42;;;;;;;16.97;11.63;;;;;;;18.79;56.99;98105.56;7031071;28;20222;-78
2022/09/16 10:28:06;;;;;;;11.97;6.20;;;;;;;19.60;57.83;98235.59;7011819;28;20244;-77
2022/09/16 10:31:30;;;;;;;6.17;5.20;;;;;;;19.68;57.05;98219.44;7029538;28;20361;-77
2022/09/16 10:34:52;;;;;;;8.43;4.90;;;;;;;19.84;56.12;98229.25;7029372;28;20244;-76
2022/09/16 10:38:18;;;;;;;7.00;4.37;;;;;;;19.76;56.26;98201.66;7029233;28;20229;-78
2022/09/16 10:41:44;;;;;;;6.33;4.60;;;;;;;19.95;55.69;98224.56;7029344;28;20200;-78
2022/09/16 10:45:15;;;;;;;7.73;4.47;;;;;;;19.94;56.17;98223.72;7030187;28;20189;-78
2022/09/16 10:48:36;;;;;;;5.97;4.47;;;;;;;19.83;56.42;98199.44;7029966;28;20285;-78
2022/09/16 10:52:08;;;;;;;8.63;4.60;;;;;;;19.63;57.52;98226.84;7029931;28;20338;-78
2022/09/16 10:55:34;;;;;;;7.07;5.00;;;;;;;19.88;57.23;98215.84;7028771;28;20208;-78
2022/09/16 10:59:03;;;;;;;7.40;5.50;;;;;;;19.80;56.65;98225.44;7028632;28;20686;-79
2022/09/16 11:02:39;;;;;;;6.97;5.70;;;;;;;19.87;56.35;98223.22;7028971;28;20209;-78
2022/09/16 11:06:08;;;;;;;8.40;4.57;;;;;;;20.16;55.64;98237.94;7028189;28;20281;-78
2022/09/16 11:09:42;;;;;;;5.07;4.50;;;;;;;19.88;55.49;98240.47;7028901;28;20256;-78
2022/09/16 11:13:15;;;;;;;6.70;4.27;;;;;;;19.62;56.29;98239.69;7033772;28;20286;-79
2022/09/16 11:16:56;;;;;;;4.40;4.10;;;;;;;19.69;56.44;98229.28;7034537;28;20315;-78
2022/09/16 11:20:33;;;;;;;7.63;4.00;;;;;;;19.84;55.79;98242.94;7033556;28;20191;-78
2022/09/16 11:24:17;;;;;;;4.67;3.90;;;;;;;19.86;56.06;98234.47;7034557;28;20330;-78
2022/09/16 11:27:46;;;;;;;5.60;4.23;;;;;;;19.62;56.03;98247.91;7003921;28;20300;-78
2022/09/16 11:31:13;;;;;;;12.43;6.60;;;;;;;19.39;57.02;98251.22;7026283;28;20182;-78
2022/09/16 11:34:48;;;;;;;38.57;18.80;;;;;;;19.58;55.61;98240.53;7034180;28;20224;-78
2022/09/16 11:38:18;;;;;;;8.47;5.57;;;;;;;19.83;54.96;98235.84;7005943;28;20218;-78
2022/09/16 11:41:44;;;;;;;4.50;3.83;;;;;;;19.54;56.44;98247.66;7005700;28;20197;-78
2022/09/16 11:45:18;;;;;;;5.50;3.50;;;;;;;19.30;54.35;98243.84;7007681;28;20662;-80
2022/09/16 11:48:53;;;;;;;5.80;3.47;;;;;;;19.60;55.66;98261.03;7008117;28;20225;-80
2022/09/16 11:52:26;;;;;;;5.40;3.47;;;;;;;19.65;54.49;98252.00;7006645;28;20185;-79
2022/09/16 11:55:54;;;;;;;5.67;3.27;;;;;;;19.74;55.08;98220.28;7005223;28;20216;-79
2022/09/16 11:59:20;;;;;;;3.60;3.03;;;;;;;19.97;54.43;98238.78;7013641;28;20226;-78
2022/09/16 12:02:45;;;;;;;7.50;3.53;;;;;;;20.01;52.95;98231.66;7029753;28;20189;-80
2022/09/16 12:06:10;;;;;;;4.97;3.50;;;;;;;20.24;53.65;98231.88;7020815;28;20216;-79
2022/09/16 12:09:38;;;;;;;4.57;3.10;;;;;;;20.13;54.81;98230.28;7032255;28;20205;-78
2022/09/16 12:13:04;;;;;;;6.00;3.40;;;;;;;20.62;52.72;98217.44;7032344;28;20226;-78
2022/09/16 12:16:33;;;;;;;5.23;3.13;;;;;;;20.72;52.05;98200.09;7033353;28;20373;-79
2022/09/16 12:20:00;;;;;;;4.13;2.83;;;;;;;20.75;51.60;98216.78;7031929;28;20606;-78
2022/09/16 12:23:24;;;;;;;4.13;2.67;;;;;;;21.20;50.67;98202.78;7030631;28;20201;-79
2022/09/16 12:26:49;;;;;;;5.07;2.20;;;;;;;21.12;48.34;98186.97;7025692;28;20362;-79
2022/09/16 12:30:17;;;;;;;5.63;2.67;;;;;;;21.13;45.68;98206.94;7031018;28;20198;-79
2022/09/16 12:33:40;;;;;;;3.07;2.10;;;;;;;21.57;44.20;98200.22;7031718;28;20201;-79
2022/09/16 12:37:07;;;;;;;2.83;2.03;;;;;;;21.83;44.44;98207.13;7032330;28;20343;-78
2022/09/16 12:40:41;;;;;;;5.63;2.50;;;;;;;21.70;44.00;98199.56;7031357;28;20196;-78
2022/09/16 12:44:23;;;;;;;4.07;2.30;;;;;;;20.53;42.79;98197.22;7031877;28;20341;-78
2022/09/16 12:47:58;;;;;;;4.43;2.43;;;;;;;20.90;42.36;98219.47;7031170;28;20292;-78
2022/09/16 12:51:40;;;;;;;2.53;2.03;;;;;;;20.25;44.98;98197.09;7031261;28;20204;-78
2022/09/16 12:55:22;;;;;;;3.90;2.17;;;;;;;20.90;42.61;98227.69;7008403;28;20316;-79
2022/09/16 12:59:19;;;;;;;4.70;2.60;;;;;;;20.17;43.54;98203.16;7007940;28;20229;-79
2022/09/16 13:02:44;;;;;;;4.50;2.53;;;;;;;20.53;42.96;98210.09;7029818;28;20235;-79
2022/09/16 13:06:20;;;;;;;3.80;2.40;;;;;;;20.63;44.33;98215.53;7032224;28;20715;-79
2022/09/16 13:09:41;;;;;;;5.83;2.60;;;;;;;20.51;43.56;98179.44;7032011;28;20365;-79
2022/09/16 13:13:04;;;;;;;5.17;2.40;;;;;;;20.25;45.70;98186.97;7008352;28;20206;-79
2022/09/16 13:16:32;;;;;;;4.87;2.03;;;;;;;20.16;44.47;98188.66;7032521;28;20256;-79
2022/09/16 13:19:55;;;;;;;3.87;2.37;;;;;;;20.82;44.55;98191.81;7003969;28;20193;-79
2022/09/16 13:23:19;;;;;;;4.30;2.20;;;;;;;20.53;44.02;98191.75;7014077;28;20240;-78
2022/09/16 13:26:42;;;;;;;2.80;2.40;;;;;;;20.27;44.24;98184.78;7033174;28;20712;-79
2022/09/16 13:30:16;;;;;;;6.03;2.30;;;;;;;20.26;43.47;98177.66;7032866;28;20230;-80
2022/09/16 13:33:39;;;;;;;2.33;1.90;;;;;;;20.83;43.18;98177.00;7032824;28;20250;-78
2022/09/16 13:37:01;;;;;;;4.33;2.50;;;;;;;20.38;44.73;98177.31;7029525;28;20237;-79
2022/09/16 13:40:26;;;;;;;4.27;2.07;;;;;;;21.01;42.40;98181.81;7031726;28;20291;-79
2022/09/16 13:43:52;;;;;;;3.77;2.30;;;;;;;21.26;42.08;98165.97;7030136;28;20781;-79
2022/09/16 13:47:16;;;;;;;4.37;2.20;;;;;;;21.10;42.40;98142.53;7031556;28;20213;-79
2022/09/16 13:50:41;;;;;;;4.50;2.10;;;;;;;21.48;41.39;98177.28;7027777;28;20908;-79
2022/09/16 13:54:03;;;;;;;3.63;2.30;;;;;;;22.00;40.73;98171.75;7016687;28;20238;-79
2022/09/16 13:57:42;;;;;;;4.47;2.10;;;;;;;21.99;39.30;98167.38;7030110;28;20317;-79
2022/09/16 14:01:11;;;;;;;2.37;2.10;;;;;;;22.05;38.64;98163.47;7031209;28;20193;-79
2022/09/16 14:04:43;;;;;;;5.33;2.63;;;;;;;21.55;40.00;98186.78;7021484;28;20193;-79
2022/09/16 14:08:13;;;;;;;3.30;1.93;;;;;;;20.95;41.33;98169.28;7012767;28;20271;-77
2022/09/16 14:11:38;;;;;;;4.73;2.13;;;;;;;20.70;42.19;98170.25;7031149;28;20238;-79
2022/09/16 14:15:00;;;;;;;4.63;2.10;;;;;;;20.58;42.92;98171.72;7016266;28;20743;-79
2022/09/16 14:18:24;;;;;;;6.07;2.00;;;;;;;20.74;42.58;98167.78;7014876;28;20873;-80
2022/09/16 14:21:45;;;;;;;3.97;2.30;;;;;;;20.30;44.17;98173.25;7031735;28;20208;-80
2022/09/16 14:25:27;;;;;;;4.87;2.30;;;;;;;20.67;43.09;98168.88;7032660;28;20209;-79
2022/09/16 14:28:48;;;;;;;2.67;2.00;;;;;;;20.75;43.48;98147.50;7032334;28;20232;-81
2022/09/16 14:32:13;;;;;;;3.80;2.37;;;;;;;21.23;42.29;98168.47;7032875;28;20208;-80
2022/09/16 14:35:35;;;;;;;2.87;2.10;;;;;;;20.90;43.37;98156.44;7032913;28;20263;-79
2022/09/16 14:38:59;;;;;;;2.73;2.07;;;;;;;21.54;42.61;98141.25;7018165;28;20243;-80
2022/09/16 14:42:22;;;;;;;3.97;2.20;;;;;;;21.41;42.89;98146.59;7032022;28;20288;-79
2022/09/16 14:45:46;;;;;;;3.77;2.33;;;;;;;21.39;41.74;98138.69;7027890;28;20265;-79
2022/09/16 14:49:10;;;;;;;2.33;2.13;;;;;;;21.08;41.69;98148.31;7019243;28;20250;-79
2022/09/16 14:52:33;;;;;;;4.63;2.97;;;;;;;21.39;42.19;98152.41;7048231;28;20205;-79
2022/09/16 14:55:55;;;;;;;2.30;2.07;;;;;;;21.38;41.62;98141.72;7015667;28;20322;-78
2022/09/16 14:59:18;;;;;;;3.63;2.30;;;;;;;21.37;41.51;98134.59;7037049;28;20262;-79
2022/09/16 15:02:43;;;;;;;3.50;2.40;;;;;;;21.52;40.95;98142.66;7036711;28;20282;-79
2022/09/16 15:06:07;;;;;;;5.63;2.40;;;;;;;21.99;42.08;98140.75;7036054;28;20583;-79
2022/09/16 15:09:33;;;;;;;2.37;1.87;;;;;;;21.94;40.95;98138.06;7036355;28;20216;-79
2022/09/16 15:12:57;;;;;;;4.03;2.20;;;;;;;21.63;40.47;98136.78;7046812;28;20223;-79
2022/09/16 15:16:22;;;;;;;7.37;2.17;;;;;;;21.54;40.85;98156.91;7038982;28;20275;-81
2022/09/16 15:19:48;;;;;;;1.90;1.77;;;;;;;21.74;40.35;98121.88;7008572;28;20194;-80
2022/09/16 15:23:20;;;;;;;2.97;2.00;;;;;;;22.18;39.74;98129.81;7018240;28;21012;-81
2022/09/16 15:26:43;;;;;;;3.70;2.10;;;;;;;22.28;39.45;98133.22;7036774;28;20227;-80
2022/09/16 15:30:06;;;;;;;5.93;2.30;;;;;;;22.53;39.64;98127.38;7036285;28;20217;-80
2022/09/16 15:33:34;;;;;;;2.70;1.80;;;;;;;21.63;40.73;98141.44;7023737;28;20651;-80
2022/09/16 15:36:57;;;;;;;4.50;2.23;;;;;;;21.52;41.09;98137.16;7026526;28;20277;-81
2022/09/16 15:40:22;;;;;;;3.23;2.00;;;;;;;21.13;42.20;98111.00;7030496;28;20301;-81
2022/09/16 15:43:44;;;;;;;3.03;2.20;;;;;;;21.64;41.76;98134.84;7023199;28;20795;-82
2022/09/16 15:47:06;;;;;;;3.63;2.30;;;;;;;21.62;41.40;98135.16;7035617;28;20317;-81
2022/09/16 15:50:31;;;;;;;2.77;2.20;;;;;;;21.37;42.08;98118.94;7035518;28;20224;-82
2022/09/16 15:53:54;;;;;;;8.07;2.87;;;;;;;21.83;41.58;98120.09;7034686;28;20269;-81
2022/09/16 15:57:23;;;;;;;3.50;2.00;;;;;;;21.67;41.81;98118.63;7033231;28;20324;-81
2022/09/16 16:00:58;;;;;;;5.23;2.13;;;;;;;21.68;41.52;98142.25;7035087;28;20192;-81
2022/09/16 16:04:25;;;;;;;4.27;2.27;;;;;;;21.68;42.02;98142.25;7034758;28;20198;-80